sensor_id;sensor_type;location;lat;lon;timestamp;pressure;altitude;pressure_sealevel;temperature;humidity
35908;BME280;22003;50.320;8.054;2022-12-16T05:01:24;99068.16;;;-7.54;100.00
35908;BME280;22003;50.320;8.054;2022-12-16T05:04:08;99068.19;;;-7.57;100.00
35908;BME280;22003;50.320;8.054;2022-12-16T05:06:52;99073.66;;;-7.77;100.00
35908;BME280;22003;50.320;8.054;2022-12-16T05:09:36;99077.78;;;-7.65;100.00
35908;BME280;22003;50.320;8.054;2022-12-16T05:12:20;99078.69;;;-7.69;100.00
35908;BME280;22003;50.320;8.054;2022-12-16T05:15:04;99088.25;;;-7.79;100.00
35908;BME280;22003;50.320;8.054;2022-12-16T05:17:48;99069.00;;;-7.55;100.00
35908;BME280;22003;50.320;8.054;2022-12-16T05:20:32;99082.09;;;-7.69;100.00
35908;BME280;22003;50.320;8.054;2022-12-16T05:23:16;99094.78;;;-7.57;100.00
35908;BME280;22003;50.320;8.054;2022-12-16T05:26:00;99060.53;;;-7.11;100.00
35908;BME280;22003;50.320;8.054;2022-12-16T05:28:44;99097.25;;;-7.51;100.00
35908;BME280;22003;50.320;8.054;2022-12-16T05:31:28;99096.88;;;-7.26;100.00
35908;BME280;22003;50.320;8.054;2022-12-16T05:34:12;99107.91;;;-7.20;100.00
35908;BME280;22003;50.320;8.054;2022-12-16T05:36:56;99117.03;;;-7.56;100.00
35908;BME280;22003;50.320;8.054;2022-12-16T05:39:40;99115.34;;;-7.57;100.00
35908;BME280;22003;50.320;8.054;2022-12-16T05:42:24;99112.97;;;-7.69;100.00
35908;BME280;22003;50.320;8.054;2022-12-16T05:45:08;99126.78;;;-7.76;100.00
35908;BME280;22003;50.320;8.054;2022-12-16T05:47:52;99138.09;;;-7.89;100.00
35908;BME280;22003;50.320;8.054;2022-12-16T05:50:35;99147.78;;;-8.08;100.00
35908;BME280;22003;50.320;8.054;2022-12-16T05:53:19;99142.75;;;-8.16;100.00
35908;BME280;22003;50.320;8.054;2022-12-16T05:56:04;99115.72;;;-8.46;100.00
35908;BME280;22003;50.320;8.054;2022-12-16T05:58:47;99155.53;;;-8.11;100.00
35908;BME280;22003;50.320;8.054;2022-12-16T06:01:32;99157.97;;;-8.01;100.00
35908;BME280;22003;50.320;8.054;2022-12-16T06:04:15;99158.88;;;-8.05;100.00
35908;BME280;22003;50.320;8.054;2022-12-16T06:06:59;99161.44;;;-8.03;100.00
35908;BME280;22003;50.320;8.054;2022-12-16T06:09:43;99163.69;;;-7.80;100.00
35908;BME280;22003;50.320;8.054;2022-12-16T06:12:27;99165.22;;;-7.67;100.00
35908;BME280;22003;50.320;8.054;2022-12-16T06:15:11;99170.38;;;-7.65;100.00
35908;BME280;22003;50.320;8.054;2022-12-16T06:17:55;99164.19;;;-7.54;100.00
35908;BME280;22003;50.320;8.054;2022-12-16T06:20:39;99171.25;;;-7.68;100.00
35908;BME280;22003;50.320;8.054;2022-12-16T06:23:23;99165.59;;;-7.93;100.00
35908;BME280;22003;50.320;8.054;2022-12-16T06:26:07;99186.69;;;-7.68;100.00
35908;BME280;22003;50.320;8.054;2022-12-16T06:28:51;99174.88;;;-7.84;100.00
35908;BME280;22003;50.320;8.054;2022-12-16T06:31:35;99195.78;;;-7.46;100.00
35908;BME280;22003;50.320;8.054;2022-12-16T06:34:19;99173.78;;;-7.66;100.00
35908;BME280;22003;50.320;8.054;2022-12-16T06:37:03;99207.88;;;-7.49;100.00
35908;BME280;22003;50.320;8.054;2022-12-16T06:39:47;99216.81;;;-7.79;100.00
35908;BME280;22003;50.320;8.054;2022-12-16T06:42:31;99222.72;;;-7.69;100.00
35908;BME280;22003;50.320;8.054;2022-12-16T06:45:15;99225.88;;;-8.20;100.00
35908;BME280;22003;50.320;8.054;2022-12-16T06:47:59;99227.00;;;-8.42;100.00
35908;BME280;22003;50.320;8.054;2022-12-16T06:50:43;99233.84;;;-8.44;100.00
35908;BME280;22003;50.320;8.054;2022-12-16T06:53:27;99236.44;;;-8.44;100.00
35908;BME280;22003;50.320;8.054;2022-12-16T06:56:11;99233.97;;;-8.54;100.00
35908;BME280;22003;50.320;8.054;2022-12-16T06:58:55;99243.03;;;-8.20;100.00
35908;BME280;22003;50.320;8.054;2022-12-16T07:01:39;99249.91;;;-8.24;100.00
35908;BME280;22003;50.320;8.054;2022-12-16T07:04:23;99252.19;;;-7.97;100.00
35908;BME280;22003;50.320;8.054;2022-12-16T07:07:07;99228.13;;;-7.94;100.00
35908;BME280;22003;50.320;8.054;2022-12-16T07:09:51;99261.88;;;-7.48;100.00
35908;BME280;22003;50.320;8.054;2022-12-16T07:12:35;99258.53;;;-7.56;100.00
35908;BME280;22003;50.320;8.054;2022-12-16T07:15:19;99266.47;;;-7.74;100.00
35908;BME280;22003;50.320;8.054;2022-12-16T07:18:03;99267.50;;;-7.87;100.00
35908;BME280;22003;50.320;8.054;2022-12-16T07:20:47;99268.31;;;-7.85;100.00
35908;BME280;22003;50.320;8.054;2022-12-16T07:23:31;99278.66;;;-7.90;100.00
35908;BME280;22003;50.320;8.054;2022-12-16T07:26:15;99257.97;;;-7.79;100.00
35908;BME280;22003;50.320;8.054;2022-12-16T07:28:59;99296.25;;;-7.53;100.00
35908;BME280;22003;50.320;8.054;2022-12-16T07:31:43;99283.47;;;-7.59;100.00
35908;BME280;22003;50.320;8.054;2022-12-16T07:34:27;99288.63;;;-7.62;100.00
35908;BME280;22003;50.320;8.054;2022-12-16T07:37:11;99298.38;;;-7.87;100.00
35908;BME280;22003;50.320;8.054;2022-12-16T07:39:55;99306.72;;;-7.70;100.00
35908;BME280;22003;50.320;8.054;2022-12-16T07:42:41;99308.22;;;-7.49;100.00
35908;BME280;22003;50.320;8.054;2022-12-16T07:45:24;99308.47;;;-7.71;100.00
35908;BME280;22003;50.320;8.054;2022-12-16T07:48:08;99330.94;;;-7.89;100.00
35908;BME280;22003;50.320;8.054;2022-12-16T07:50:52;99319.66;;;-7.78;100.00
35908;BME280;22003;50.320;8.054;2022-12-16T07:53:36;99302.75;;;-8.00;100.00
35908;BME280;22003;50.320;8.054;2022-12-16T07:56:20;99320.75;;;-8.00;99.11
35908;BME280;22003;50.320;8.054;2022-12-16T07:59:04;99284.03;;;-8.10;98.64
35908;BME280;22003;50.320;8.054;2022-12-16T08:01:48;99325.78;;;-7.86;98.33
35908;BME280;22003;50.320;8.054;2022-12-16T08:04:32;99324.16;;;-7.97;97.43
35908;BME280;22003;50.320;8.054;2022-12-16T08:07:16;99314.91;;;-8.14;97.09
35908;BME280;22003;50.320;8.054;2022-12-16T08:10:00;99334.59;;;-8.12;97.51
35908;BME280;22003;50.320;8.054;2022-12-16T08:12:44;99325.97;;;-8.08;99.10
35908;BME280;22003;50.320;8.054;2022-12-16T08:15:28;99337.78;;;-7.88;98.10
35908;BME280;22003;50.320;8.054;2022-12-16T08:18:12;99330.16;;;-7.96;96.71
35908;BME280;22003;50.320;8.054;2022-12-16T08:20:56;99354.72;;;-7.66;97.43
35908;BME280;22003;50.320;8.054;2022-12-16T08:23:40;99355.72;;;-7.82;98.00
35908;BME280;22003;50.320;8.054;2022-12-16T08:26:24;99347.28;;;-7.95;98.35
35908;BME280;22003;50.320;8.054;2022-12-16T08:29:09;99364.81;;;-7.49;97.89
35908;BME280;22003;50.320;8.054;2022-12-16T08:31:53;99360.34;;;-7.35;96.53
35908;BME280;22003;50.320;8.054;2022-12-16T08:34:37;99363.19;;;-7.58;94.66
35908;BME280;22003;50.320;8.054;2022-12-16T08:37:21;99336.00;;;-7.83;94.78
35908;BME280;22003;50.320;8.054;2022-12-16T08:40:05;99387.34;;;-7.71;93.38
35908;BME280;22003;50.320;8.054;2022-12-16T08:42:50;99390.72;;;-7.67;93.65
35908;BME280;22003;50.320;8.054;2022-12-16T08:45:33;99397.72;;;-7.83;94.62
35908;BME280;22003;50.320;8.054;2022-12-16T08:48:18;99372.81;;;-7.78;95.28
35908;BME280;22003;50.320;8.054;2022-12-16T08:51:05;99406.09;;;-7.63;96.10
35908;BME280;22003;50.320;8.054;2022-12-16T08:53:50;99406.03;;;-7.54;96.45
35908;BME280;22003;50.320;8.054;2022-12-16T08:56:34;99413.34;;;-7.19;95.94
35908;BME280;22003;50.320;8.054;2022-12-16T08:59:18;99416.38;;;-7.61;94.97
35908;BME280;22003;50.320;8.054;2022-12-16T09:02:02;99425.50;;;-7.33;95.85
35908;BME280;22003;50.320;8.054;2022-12-16T09:04:46;99428.84;;;-7.25;96.00
35908;BME280;22003;50.320;8.054;2022-12-16T09:07:30;99424.66;;;-7.33;96.15
35908;BME280;22003;50.320;8.054;2022-12-16T09:10:14;99431.47;;;-7.26;96.20
35908;BME280;22003;50.320;8.054;2022-12-16T09:13:11;99426.16;;;-7.14;96.18
35908;BME280;22003;50.320;8.054;2022-12-16T09:15:55;99417.63;;;-7.16;95.87
35908;BME280;22003;50.320;8.054;2022-12-16T09:18:39;99410.44;;;-6.94;96.28
35908;BME280;22003;50.320;8.054;2022-12-16T09:21:23;99423.66;;;-6.54;95.52
35908;BME280;22003;50.320;8.054;2022-12-16T09:24:07;99424.47;;;-6.50;95.47
35908;BME280;22003;50.320;8.054;2022-12-16T09:26:51;99421.88;;;-6.50;93.86
35908;BME280;22003;50.320;8.054;2022-12-16T09:29:35;99424.38;;;-6.44;93.60
35908;BME280;22003;50.320;8.054;2022-12-16T09:32:23;99427.72;;;-6.38;93.26
35908;BME280;22003;50.320;8.054;2022-12-16T09:35:07;99425.34;;;-6.51;92.91
35908;BME280;22003;50.320;8.054;2022-12-16T09:37:51;99429.00;;;-6.66;92.69
35908;BME280;22003;50.320;8.054;2022-12-16T09:40:43;99416.75;;;-6.52;92.95
35908;BME280;22003;50.320;8.054;2022-12-16T09:43:50;99433.16;;;-6.57;93.68
35908;BME280;22003;50.320;8.054;2022-12-16T09:46:47;99445.38;;;-6.73;95.31
35908;BME280;22003;50.320;8.054;2022-12-16T09:49:51;99455.16;;;-7.00;96.66
35908;BME280;22003;50.320;8.054;2022-12-16T09:52:58;99461.50;;;-7.27;98.88
35908;BME280;22003;50.320;8.054;2022-12-16T09:55:44;99453.03;;;-7.39;100.00
35908;BME280;22003;50.320;8.054;2022-12-16T09:58:33;99464.81;;;-7.19;100.00
35908;BME280;22003;50.320;8.054;2022-12-16T10:01:19;99392.41;;;-7.66;100.00
35908;BME280;22003;50.320;8.054;2022-12-16T10:04:05;99462.28;;;-7.23;100.00
35908;BME280;22003;50.320;8.054;2022-12-16T10:06:57;99463.31;;;-7.39;100.00
35908;BME280;22003;50.320;8.054;2022-12-16T10:16:01;99434.03;;;-7.26;100.00
35908;BME280;22003;50.320;8.054;2022-12-16T10:19:06;99462.63;;;-6.77;100.00
35908;BME280;22003;50.320;8.054;2022-12-16T10:22:17;99465.19;;;-6.78;100.00
35908;BME280;22003;50.320;8.054;2022-12-16T10:28:17;99463.75;;;-6.34;97.21
35908;BME280;22003;50.320;8.054;2022-12-16T10:31:11;99474.81;;;-6.26;97.28
35908;BME280;22003;50.320;8.054;2022-12-16T10:33:56;99471.38;;;-6.25;97.81
35908;BME280;22003;50.320;8.054;2022-12-16T10:36:40;99468.31;;;-5.95;96.16
35908;BME280;22003;50.320;8.054;2022-12-16T10:39:31;99456.47;;;-6.06;94.30
35908;BME280;22003;50.320;8.054;2022-12-16T10:42:27;99484.03;;;-6.10;94.82
35908;BME280;22003;50.320;8.054;2022-12-16T10:45:27;99483.47;;;-6.30;96.52
35908;BME280;22003;50.320;8.054;2022-12-16T10:48:11;99483.41;;;-5.73;95.80
35908;BME280;22003;50.320;8.054;2022-12-16T10:50:58;99480.88;;;-5.25;93.66
35908;BME280;22003;50.320;8.054;2022-12-16T10:53:43;99486.78;;;-5.19;92.84
35908;BME280;22003;50.320;8.054;2022-12-16T10:59:15;99482.22;;;-5.05;91.34
35908;BME280;22003;50.320;8.054;2022-12-16T11:02:03;99477.56;;;-5.34;90.62
35908;BME280;22003;50.320;8.054;2022-12-16T11:04:47;99493.16;;;-5.38;92.53
35908;BME280;22003;50.320;8.054;2022-12-16T11:10:28;99483.81;;;-4.97;93.33
35908;BME280;22003;50.320;8.054;2022-12-16T11:13:33;99487.50;;;-4.66;90.62
35908;BME280;22003;50.320;8.054;2022-12-16T11:16:28;99461.72;;;-4.70;88.66
35908;BME280;22003;50.320;8.054;2022-12-16T11:19:21;99440.03;;;-5.51;88.69
35908;BME280;22003;50.320;8.054;2022-12-16T11:22:20;99496.50;;;-4.43;90.38
35908;BME280;22003;50.320;8.054;2022-12-16T11:25:08;99495.97;;;-4.59;89.58
35908;BME280;22003;50.320;8.054;2022-12-16T11:30:51;99483.28;;;-3.92;88.98
35908;BME280;22003;50.320;8.054;2022-12-16T11:33:36;99488.28;;;-3.49;86.80
35908;BME280;22003;50.320;8.054;2022-12-16T11:36:23;99472.00;;;-3.90;87.35
35908;BME280;22003;50.320;8.054;2022-12-16T11:39:14;99450.97;;;-3.78;88.31
35908;BME280;22003;50.320;8.054;2022-12-16T11:41:59;99494.09;;;-3.41;87.72
35908;BME280;22003;50.320;8.054;2022-12-16T11:44:48;99501.72;;;-3.35;87.51
35908;BME280;22003;50.320;8.054;2022-12-16T11:47:50;99497.78;;;-3.15;89.02
35908;BME280;22003;50.320;8.054;2022-12-16T11:50:46;99500.25;;;-3.12;90.11
35908;BME280;22003;50.320;8.054;2022-12-16T11:53:53;99500.69;;;-3.29;90.75
35908;BME280;22003;50.320;8.054;2022-12-16T11:56:43;99503.81;;;-3.16;91.46
35908;BME280;22003;50.320;8.054;2022-12-16T11:59:43;99514.13;;;-3.48;91.59
35908;BME280;22003;50.320;8.054;2022-12-16T12:02:32;99513.34;;;-3.51;93.99
35908;BME280;22003;50.320;8.054;2022-12-16T12:05:25;99501.09;;;-3.45;94.70
35908;BME280;22003;50.320;8.054;2022-12-16T12:08:17;99514.22;;;-3.52;94.75
35908;BME280;22003;50.320;8.054;2022-12-16T12:11:31;99517.34;;;-3.38;95.45
35908;BME280;22003;50.320;8.054;2022-12-16T12:14:28;99522.47;;;-3.72;96.57
35908;BME280;22003;50.320;8.054;2022-12-16T12:17:39;99525.25;;;-3.80;97.79
35908;BME280;22003;50.320;8.054;2022-12-16T12:21:01;99527.22;;;-3.54;96.77
35908;BME280;22003;50.320;8.054;2022-12-16T12:27:17;99526.22;;;-3.48;95.12
35908;BME280;22003;50.320;8.054;2022-12-16T12:30:13;99537.72;;;-2.92;96.14
35908;BME280;22003;50.320;8.054;2022-12-16T12:43:18;99528.59;;;-2.74;93.38
35908;BME280;22003;50.320;8.054;2022-12-16T12:46:22;99523.63;;;-2.81;93.47
35908;BME280;22003;50.320;8.054;2022-12-16T12:49:38;99538.91;;;-2.71;93.29
35908;BME280;22003;50.320;8.054;2022-12-16T12:52:47;99543.09;;;-2.67;92.90
35908;BME280;22003;50.320;8.054;2022-12-16T12:55:44;99543.66;;;-2.55;93.84
35908;BME280;22003;50.320;8.054;2022-12-16T12:58:31;99509.72;;;-3.10;93.38
35908;BME280;22003;50.320;8.054;2022-12-16T13:01:18;99546.13;;;-2.82;94.20
35908;BME280;22003;50.320;8.054;2022-12-16T13:04:13;99526.34;;;-3.19;93.88
35908;BME280;22003;50.320;8.054;2022-12-16T13:06:59;99546.41;;;-2.93;94.67
35908;BME280;22003;50.320;8.054;2022-12-16T13:09:44;99497.03;;;-2.89;94.30
35908;BME280;22003;50.320;8.054;2022-12-16T13:12:30;99547.56;;;-3.04;93.36
35908;BME280;22003;50.320;8.054;2022-12-16T13:15:34;99555.00;;;-3.25;95.48
35908;BME280;22003;50.320;8.054;2022-12-16T13:18:29;99556.41;;;-3.13;96.04
35908;BME280;22003;50.320;8.054;2022-12-16T13:27:16;99535.00;;;-3.91;98.56
35908;BME280;22003;50.320;8.054;2022-12-16T13:30:16;99557.16;;;-3.42;100.00
35908;BME280;22003;50.320;8.054;2022-12-16T13:33:05;99543.84;;;-3.28;97.95
35908;BME280;22003;50.320;8.054;2022-12-16T13:35:54;99552.34;;;-3.23;95.90
35908;BME280;22003;50.320;8.054;2022-12-16T13:38:46;99569.03;;;-2.99;96.25
35908;BME280;22003;50.320;8.054;2022-12-16T13:44:53;99576.09;;;-3.06;94.71
35908;BME280;22003;50.320;8.054;2022-12-16T13:50:42;99589.63;;;-2.93;97.00
35908;BME280;22003;50.320;8.054;2022-12-16T13:53:37;99585.63;;;-3.42;95.82
35908;BME280;22003;50.320;8.054;2022-12-16T13:56:28;99573.50;;;-3.06;94.39
35908;BME280;22003;50.320;8.054;2022-12-16T13:59:20;99586.13;;;-3.28;95.19
35908;BME280;22003;50.320;8.054;2022-12-16T14:02:45;99588.03;;;-3.33;95.74
35908;BME280;22003;50.320;8.054;2022-12-16T14:05:30;99589.38;;;-3.54;96.81
35908;BME280;22003;50.320;8.054;2022-12-16T14:08:19;99609.09;;;-3.48;97.85
35908;BME280;22003;50.320;8.054;2022-12-16T14:11:13;99607.41;;;-3.51;98.26
35908;BME280;22003;50.320;8.054;2022-12-16T14:14:13;99594.47;;;-3.51;98.05
35908;BME280;22003;50.320;8.054;2022-12-16T14:17:03;99605.19;;;-3.66;97.87
35908;BME280;22003;50.320;8.054;2022-12-16T14:19:57;99611.56;;;-3.81;97.83
35908;BME280;22003;50.320;8.054;2022-12-16T14:22:49;99613.91;;;-4.10;99.36
35908;BME280;22003;50.320;8.054;2022-12-16T14:25:35;99621.97;;;-4.26;100.00
35908;BME280;22003;50.320;8.054;2022-12-16T14:28:26;99627.19;;;-4.27;100.00
35908;BME280;22003;50.320;8.054;2022-12-16T14:31:21;99631.66;;;-4.35;100.00
35908;BME280;22003;50.320;8.054;2022-12-16T14:34:28;99630.28;;;-4.53;100.00
35908;BME280;22003;50.320;8.054;2022-12-16T14:37:33;99641.19;;;-4.39;100.00
35908;BME280;22003;50.320;8.054;2022-12-16T14:40:27;99619.69;;;-4.87;100.00
35908;BME280;22003;50.320;8.054;2022-12-16T14:43:21;99640.38;;;-4.41;100.00
35908;BME280;22003;50.320;8.054;2022-12-16T14:49:28;99652.31;;;-4.83;100.00
35908;BME280;22003;50.320;8.054;2022-12-16T14:52:20;99650.69;;;-4.87;100.00
35908;BME280;22003;50.320;8.054;2022-12-16T14:55:16;99643.22;;;-5.04;100.00
35908;BME280;22003;50.320;8.054;2022-12-16T14:58:08;99649.44;;;-5.17;100.00
35908;BME280;22003;50.320;8.054;2022-12-16T15:00:53;99665.09;;;-5.25;100.00
35908;BME280;22003;50.320;8.054;2022-12-16T15:03:39;99636.16;;;-5.47;100.00
35908;BME280;22003;50.320;8.054;2022-12-16T15:06:37;99670.25;;;-5.25;100.00
35908;BME280;22003;50.320;8.054;2022-12-16T15:09:31;99672.53;;;-5.64;100.00
35908;BME280;22003;50.320;8.054;2022-12-16T15:12:18;99675.78;;;-5.49;100.00
35908;BME280;22003;50.320;8.054;2022-12-16T15:15:09;99677.66;;;-5.61;100.00
35908;BME280;22003;50.320;8.054;2022-12-16T15:17:56;99683.78;;;-5.69;100.00
35908;BME280;22003;50.320;8.054;2022-12-16T15:20:50;99681.75;;;-6.10;100.00
35908;BME280;22003;50.320;8.054;2022-12-16T15:23:38;99687.63;;;-5.98;100.00
35908;BME280;22003;50.320;8.054;2022-12-16T15:26:26;99691.06;;;-5.99;100.00
35908;BME280;22003;50.320;8.054;2022-12-16T15:29:36;99698.97;;;-6.14;100.00
35908;BME280;22003;50.320;8.054;2022-12-16T15:35:09;99705.78;;;-6.08;100.00
35908;BME280;22003;50.320;8.054;2022-12-16T15:37:53;99699.72;;;-6.03;100.00
35908;BME280;22003;50.320;8.054;2022-12-16T15:40:39;99714.66;;;-6.32;100.00
35908;BME280;22003;50.320;8.054;2022-12-16T15:43:31;99714.06;;;-6.62;100.00
35908;BME280;22003;50.320;8.054;2022-12-16T15:49:00;99715.06;;;-6.77;100.00
35908;BME280;22003;50.320;8.054;2022-12-16T15:51:46;99725.38;;;-6.77;100.00
35908;BME280;22003;50.320;8.054;2022-12-16T15:54:30;99732.38;;;-6.93;100.00
35908;BME280;22003;50.320;8.054;2022-12-16T15:57:31;99704.94;;;-7.00;100.00
35908;BME280;22003;50.320;8.054;2022-12-16T16:00:27;99722.00;;;-6.86;100.00
35908;BME280;22003;50.320;8.054;2022-12-16T16:03:30;99744.31;;;-6.85;100.00
35908;BME280;22003;50.320;8.054;2022-12-16T16:06:22;99758.94;;;-6.89;100.00
35908;BME280;22003;50.320;8.054;2022-12-16T16:09:13;99758.31;;;-7.22;100.00
35908;BME280;22003;50.320;8.054;2022-12-16T16:11:57;99759.94;;;-7.08;100.00
35908;BME280;22003;50.320;8.054;2022-12-16T16:14:41;99758.25;;;-7.12;100.00
35908;BME280;22003;50.320;8.054;2022-12-16T16:17:26;99762.63;;;-7.25;100.00
35908;BME280;22003;50.320;8.054;2022-12-16T16:20:14;99772.91;;;-7.28;100.00
35908;BME280;22003;50.320;8.054;2022-12-16T16:22:59;99748.19;;;-7.54;100.00
35908;BME280;22003;50.320;8.054;2022-12-16T16:25:44;99759.28;;;-7.46;100.00
35908;BME280;22003;50.320;8.054;2022-12-16T16:28:28;99780.75;;;-7.47;100.00
35908;BME280;22003;50.320;8.054;2022-12-16T16:31:12;99780.75;;;-7.43;100.00
35908;BME280;22003;50.320;8.054;2022-12-16T16:33:56;99760.25;;;-7.63;100.00
35908;BME280;22003;50.320;8.054;2022-12-16T16:36:39;99784.25;;;-7.64;100.00
35908;BME280;22003;50.320;8.054;2022-12-16T16:39:23;99786.91;;;-7.81;100.00
35908;BME280;22003;50.320;8.054;2022-12-16T16:42:08;99791.00;;;-7.39;100.00
35908;BME280;22003;50.320;8.054;2022-12-16T16:44:52;99767.97;;;-7.60;100.00
35908;BME280;22003;50.320;8.054;2022-12-16T16:47:36;99763.59;;;-7.51;100.00
35908;BME280;22003;50.320;8.054;2022-12-16T16:50:19;99795.94;;;-7.02;100.00
35908;BME280;22003;50.320;8.054;2022-12-16T16:53:03;99771.25;;;-7.38;100.00
35908;BME280;22003;50.320;8.054;2022-12-16T16:55:52;99807.38;;;-7.54;100.00
35908;BME280;22003;50.320;8.054;2022-12-16T16:58:35;99820.25;;;-7.63;100.00
35908;BME280;22003;50.320;8.054;2022-12-16T17:01:19;99821.19;;;-7.91;100.00
35908;BME280;22003;50.320;8.054;2022-12-16T17:04:03;99814.31;;;-7.83;100.00
35908;BME280;22003;50.320;8.054;2022-12-16T17:06:47;99832.25;;;-7.66;100.00
35908;BME280;22003;50.320;8.054;2022-12-16T17:09:31;99800.63;;;-7.96;100.00
35908;BME280;22003;50.320;8.054;2022-12-16T17:12:24;99839.16;;;-7.72;100.00
35908;BME280;22003;50.320;8.054;2022-12-16T17:15:38;99838.34;;;-7.81;100.00
35908;BME280;22003;50.320;8.054;2022-12-16T17:18:22;99847.72;;;-7.63;100.00
35908;BME280;22003;50.320;8.054;2022-12-16T17:21:06;99846.06;;;-7.92;100.00
35908;BME280;22003;50.320;8.054;2022-12-16T17:23:50;99820.38;;;-7.93;100.00
35908;BME280;22003;50.320;8.054;2022-12-16T17:26:40;99809.25;;;-8.29;100.00
35908;BME280;22003;50.320;8.054;2022-12-16T17:29:24;99808.44;;;-8.51;100.00
35908;BME280;22003;50.320;8.054;2022-12-16T17:32:09;99856.41;;;-8.59;100.00
35908;BME280;22003;50.320;8.054;2022-12-16T17:34:53;99834.97;;;-8.81;100.00
35908;BME280;22003;50.320;8.054;2022-12-16T17:37:37;99861.53;;;-8.68;100.00
35908;BME280;22003;50.320;8.054;2022-12-16T17:40:21;99860.69;;;-8.60;100.00
35908;BME280;22003;50.320;8.054;2022-12-16T17:43:05;99869.25;;;-8.55;100.00
35908;BME280;22003;50.320;8.054;2022-12-16T17:46:00;99878.66;;;-8.35;100.00
35908;BME280;22003;50.320;8.054;2022-12-16T17:48:52;99880.38;;;-8.39;100.00
35908;BME280;22003;50.320;8.054;2022-12-16T17:51:36;99868.38;;;-8.57;100.00
35908;BME280;22003;50.320;8.054;2022-12-16T17:54:19;99896.66;;;-8.47;100.00
35908;BME280;22003;50.320;8.054;2022-12-16T17:57:03;99890.66;;;-8.45;100.00
35908;BME280;22003;50.320;8.054;2022-12-16T17:59:47;99861.56;;;-8.55;100.00
35908;BME280;22003;50.320;8.054;2022-12-16T18:02:31;99877.78;;;-8.62;100.00
35908;BME280;22003;50.320;8.054;2022-12-16T18:05:15;99890.63;;;-8.68;100.00
35908;BME280;22003;50.320;8.054;2022-12-16T18:08:00;99884.59;;;-8.88;100.00
35908;BME280;22003;50.320;8.054;2022-12-16T18:10:44;99895.78;;;-8.77;100.00
35908;BME280;22003;50.320;8.054;2022-12-16T18:13:27;99911.19;;;-8.71;100.00
35908;BME280;22003;50.320;8.054;2022-12-16T18:16:11;99909.50;;;-8.60;100.00
35908;BME280;22003;50.320;8.054;2022-12-16T18:18:55;99911.16;;;-8.75;100.00
35908;BME280;22003;50.320;8.054;2022-12-16T18:21:39;99915.41;;;-8.90;100.00
35908;BME280;22003;50.320;8.054;2022-12-16T18:24:23;99922.22;;;-8.96;100.00
35908;BME280;22003;50.320;8.054;2022-12-16T18:27:07;99916.31;;;-8.75;100.00
35908;BME280;22003;50.320;8.054;2022-12-16T18:29:51;99920.53;;;-8.84;100.00
35908;BME280;22003;50.320;8.054;2022-12-16T18:32:35;99918.84;;;-8.85;100.00
35908;BME280;22003;50.320;8.054;2022-12-16T18:35:19;99924.00;;;-8.80;100.00
35908;BME280;22003;50.320;8.054;2022-12-16T18:38:03;99933.41;;;-8.79;100.00
35908;BME280;22003;50.320;8.054;2022-12-16T18:40:47;99936.81;;;-8.85;100.00
35908;BME280;22003;50.320;8.054;2022-12-16T18:43:31;99903.31;;;-9.18;100.00
35908;BME280;22003;50.320;8.054;2022-12-16T18:46:15;99933.38;;;-8.84;100.00
35908;BME280;22003;50.320;8.054;2022-12-16T18:48:59;99937.63;;;-8.96;100.00
35908;BME280;22003;50.320;8.054;2022-12-16T18:51:43;99943.63;;;-8.99;100.00
35908;BME280;22003;50.320;8.054;2022-12-16T18:54:27;99941.88;;;-9.01;100.00
35908;BME280;22003;50.320;8.054;2022-12-16T18:57:11;99947.03;;;-9.03;100.00
35908;BME280;22003;50.320;8.054;2022-12-16T18:59:55;99959.00;;;-9.00;100.00
35908;BME280;22003;50.320;8.054;2022-12-16T19:02:38;99962.41;;;-9.09;100.00
35908;BME280;22003;50.320;8.054;2022-12-16T19:05:23;99958.06;;;-9.21;100.00
35908;BME280;22003;50.320;8.054;2022-12-16T19:08:06;99961.47;;;-9.19;100.00
35908;BME280;22003;50.320;8.054;2022-12-16T19:10:55;99949.41;;;-9.37;100.00
35908;BME280;22003;50.320;8.054;2022-12-16T19:13:39;99941.63;;;-9.53;100.00
35908;BME280;22003;50.320;8.054;2022-12-16T19:16:23;99971.81;;;-9.07;100.00
35908;BME280;22003;50.320;8.054;2022-12-16T19:19:07;99974.25;;;-9.33;100.00
35908;BME280;22003;50.320;8.054;2022-12-16T19:21:51;99975.88;;;-9.45;100.00
35908;BME280;22003;50.320;8.054;2022-12-16T19:24:35;99988.63;;;-9.59;100.00
35908;BME280;22003;50.320;8.054;2022-12-16T19:27:19;99989.44;;;-9.63;100.00
35908;BME280;22003;50.320;8.054;2022-12-16T19:30:03;99992.84;;;-9.61;100.00
35908;BME280;22003;50.320;8.054;2022-12-16T19:32:48;99997.13;;;-9.65;100.00
35908;BME280;22003;50.320;8.054;2022-12-16T19:35:32;99994.69;;;-9.46;100.00
35908;BME280;22003;50.320;8.054;2022-12-16T19:38:16;99989.66;;;-9.31;100.00
35908;BME280;22003;50.320;8.054;2022-12-16T19:41:00;99997.38;;;-9.23;100.00
35908;BME280;22003;50.320;8.054;2022-12-16T19:43:44;100007.53;;;-9.40;100.00
35908;BME280;22003;50.320;8.054;2022-12-16T19:46:28;100000.06;;;-9.03;100.00
35908;BME280;22003;50.320;8.054;2022-12-16T19:49:12;100010.13;;;-9.36;100.00
35908;BME280;22003;50.320;8.054;2022-12-16T19:51:56;99999.84;;;-9.42;100.00
35908;BME280;22003;50.320;8.054;2022-12-16T19:54:40;99984.22;;;-9.74;100.00
35908;BME280;22003;50.320;8.054;2022-12-16T19:57:24;100019.44;;;-9.51;100.00
35908;BME280;22003;50.320;8.054;2022-12-16T20:00:09;100022.66;;;-9.77;100.00
35908;BME280;22003;50.320;8.054;2022-12-16T20:02:52;100024.34;;;-9.79;100.00
35908;BME280;22003;50.320;8.054;2022-12-16T20:05:37;100027.75;;;-9.78;100.00
35908;BME280;22003;50.320;8.054;2022-12-16T20:08:20;100040.63;;;-9.72;100.00
35908;BME280;22003;50.320;8.054;2022-12-16T20:11:06;100045.19;;;-9.36;100.00
35908;BME280;22003;50.320;8.054;2022-12-16T20:13:54;100041.56;;;-9.64;100.00
35908;BME280;22003;50.320;8.054;2022-12-16T20:16:39;100048.41;;;-9.62;100.00
35908;BME280;22003;50.320;8.054;2022-12-16T20:19:23;100049.06;;;-9.84;100.00
35908;BME280;22003;50.320;8.054;2022-12-16T20:22:08;100046.41;;;-9.96;100.00
35908;BME280;22003;50.320;8.054;2022-12-16T20:24:52;100055.75;;;-10.00;100.00
35908;BME280;22003;50.320;8.054;2022-12-16T20:27:35;100058.41;;;-9.92;100.00
35908;BME280;22003;50.320;8.054;2022-12-16T20:30:19;100057.41;;;-10.06;100.00
35908;BME280;22003;50.320;8.054;2022-12-16T20:33:04;100061.63;;;-10.15;100.00